• Join FlightAware (Why Join?)
  • Login
  • US Flag 
06:34AM EDT


 

Airport Tracker/Info


-or-


 

Live Flight TrackerFlight Track Log ✈ AWE1710 ✈ 06-Jun-2013 ✈ KCLT - KMCO

Flight Track Log - Related Links

Times and Time Zones

All times are in EDT time to prevent confusion due to time zone crossing. See the AWE1710 flight status page for this flight to view local times or setup timezone preferences in your user account.

Time Position Orientation Groundspeed Altitude Reporting Facility
EDT Latitude Longitude Course Direction KTS MPH feet Rate Location/Type
02:23PM 35.1908 -80.9356 180° South 160 184 1,800  Level Atlanta Center
02:24PM 35.1281 -80.9278 174° South 207 238 3,100 1,560 Climbing Atlanta Center
02:26PM 35.0358 -80.9111 172° South 271 312 5,700 2,100 Climbing Atlanta Center
02:27PM 34.7904 -80.9732 180° South  Level Estimated
02:27PM 34.9625 -80.9036 175° South 278 320 8,100  Level Atlanta Center
02:28PM 34.6845 -80.9792 180° South  Level Estimated
02:28PM 34.8450 -80.9044 180° South 281 323 10,800  Level Jacksonville Center
02:29PM 34.7533 -80.9014 178° South 319 367 11,900 1,620 Climbing Jacksonville Center
02:30PM 34.6447 -80.8964 178° South 350 403 14,100 1,800 Climbing Jacksonville Center
02:31PM 34.5403 -80.8886 176° South 365 420 15,600 1,500 Climbing Jacksonville Center
02:32PM 34.4406 -80.9061 188° South 365 420 17,100 1,380 Climbing Jacksonville Center
02:33PM 34.3367 -80.9336 192° South 372 428 18,400 1,440 Climbing Jacksonville Center
02:34PM 34.2325 -80.9586 191° South 385 443 20,000 1,500 Climbing Jacksonville Center
02:35PM 34.1225 -80.9886 193° South 392 451 21,500 1,260 Climbing Jacksonville Center
02:36PM 34.0144 -81.0161 192° South 397 457 22,600 1,020 Climbing Jacksonville Center
02:37PM 33.9064 -81.0433 192° South 397 457 23,600 1,140 Climbing Jacksonville Center
02:38PM 33.7917 -81.0583 186° South 410 472 24,900 1,140 Climbing Jacksonville Center
02:39PM 33.6750 -81.0633 182° South 416 479 25,900 900 Climbing Jacksonville Center
02:40PM 33.5561 -81.0656 181° South 422 486 26,800 720 Climbing Jacksonville Center
02:41PM 33.4350 -81.0706 182° South 422 486 27,400 600 Climbing Jacksonville Center
02:42PM 33.3161 -81.0731 181° South 427 491 28,100 900 Climbing Jacksonville Center
02:43PM 33.1911 -81.0781 182° South 438 504 29,300 900 Climbing Jacksonville Center
02:44PM 33.0722 -81.0831 182° South 438 504 30,000 300 Climbing Jacksonville Center
02:45PM 32.9553 -81.0853 181° South 438 504 30,000  Level Jacksonville Center
02:46PM 32.8342 -81.0878 181° South 438 504 30,000  Level Jacksonville Center
02:47PM 32.7111 -81.0928 182° South 438 504 30,000  Level Jacksonville Center
02:48PM 32.5964 -81.0975 182° South 433 498 30,000  Level Jacksonville Center
02:49PM 32.4878 -81.0847 174° South 427 491 30,000  Level Jacksonville Center
02:50PM 32.3558 -81.0628 172° South 443 510 30,000  Level Jacksonville Center
02:51PM 32.2514 -81.0503 174° South 432 497 30,000  Level Jacksonville Center
02:52PM 32.1172 -81.0258 171° South 432 497 30,000  Level Jacksonville Center
02:53PM 31.9981 -81.0111 174° South 438 504 30,000  Level Jacksonville Center
02:54PM 31.8892 -80.9964 173° South 438 504 30,000  Level Jacksonville Center
02:55PM 31.7594 -80.9769 173° South 438 504 30,000  Level Jacksonville Center
02:56PM 31.6383 -80.9600 173° South 438 504 30,000  Level Jacksonville Center
02:57PM 31.5272 -80.9428 172° South 447 514 30,000  Level Jacksonville Center
02:58PM 31.3933 -80.9261 174° South 441 507 30,000  Level Jacksonville Center
02:59PM 31.2700 -80.9092 173° South 453 521 30,000  Level Jacksonville Center
03:00PM 31.1508 -80.8947 174° South 436 502 30,000  Level Jacksonville Center
03:01PM 31.0272 -80.8756 172° South 441 507 30,000  Level Jacksonville Center
03:02PM 30.9081 -80.8611 174° South 441 507 30,000 -60 Level Jacksonville Center
03:03PM 30.7886 -80.8419 172° South 446 513 29,900  Descending Jacksonville Center
03:04PM 30.6672 -80.8253 173° South 446 513 30,000  Climbing Jacksonville Center
03:05PM 30.5522 -80.8083 173° South 440 506 30,000 -60 Level Jacksonville Center
03:06PM 30.4350 -80.7942 174° South 429 494 29,900 -60 Descending Jacksonville Center
03:07PM 30.3158 -80.7775 173° South 429 494 29,900  Level Jacksonville Center
03:08PM 30.1986 -80.7608 173° South 429 494 29,900  Level Jacksonville Center
03:09PM 30.0814 -80.7442 173° South 423 487 30,000 -360 Climbing Jacksonville Center
03:10PM 29.9642 -80.7278 173° South 423 487 29,200 -1,560 Descending Jacksonville Center
03:11PM 29.8469 -80.7136 174° South 423 487 26,900 -2,220 Descending Jacksonville Center
03:12PM 29.7319 -80.6994 174° South 423 487 24,800 -2,100 Descending Jacksonville Center
03:13PM 29.6211 -80.6900 176° South 413 475 22,700 -2,100 Descending Jacksonville Center
03:14PM 29.5169 -80.6969 183° South 398 458 20,600 -2,040 Descending Jacksonville Center
03:15PM 29.4147 -80.7042 184° South 387 445 18,700 -2,100 Descending Jacksonville Center
03:16PM 29.3128 -80.7136 185° South 375 432 16,500 -2,100 Descending Jacksonville Center
03:17PM 29.2147 -80.7250 186° South 362 417 14,600 -1,800 Descending Jacksonville Center
03:18PM 29.1208 -80.7319 184° South 356 410 13,000 -1,200 Descending Jacksonville Center
03:19PM 29.0439 -80.7383 184° South 328 377 12,200 -540 Descending Jacksonville Center
03:20PM 28.9772 -80.7542 192° South 287 330 12,000 -720 Descending Jacksonville Center
03:21PM 28.9325 -80.8239 234° Southwest 249 287 10,800 -1,500 Descending Jacksonville Center
03:22PM 28.8878 -80.8911 233° Southwest 254 292 9,100 -1,680 Descending Jacksonville Center
03:23PM 28.8667 -80.9167 227° Southwest 266 306 8,300 -1,440 Descending Orlando TRACON
03:24PM 28.8167 -80.9833 229° Southwest 248 285 7,000 -1,200 Descending Orlando TRACON
03:25PM 28.7833 -81.0500 240° Southwest 240 276 6,000 -540 Descending Orlando TRACON
03:26PM 28.7500 -81.1000 233° Southwest 238 274 6,000  Level Orlando TRACON
03:26PM 28.7244 -81.1383 233° Southwest 251 289 6,000 -600 Level Jacksonville Center
03:27PM 28.7128 -81.2025 258° West 227 261 5,100 -960 Descending Jacksonville Center
03:30PM 28.6667 -81.3167 245° Southwest 143 165 3,000 -960 Descending Orlando TRACON